sensor_id;sensor_type;location;lat;lon;timestamp;P1;durP1;ratioP1;P2;durP2;ratioP2
84937;SDS011;75210;52.210;20.902;2024-02-21T00:00:05;14.18;;;4.85;;
84937;SDS011;75210;52.210;20.902;2024-02-21T00:01:06;19.83;;;5.18;;
84937;SDS011;75210;52.210;20.902;2024-02-21T00:02:07;17.50;;;5.30;;
84937;SDS011;75210;52.210;20.902;2024-02-21T00:03:07;17.40;;;5.05;;
84937;SDS011;75210;52.210;20.902;2024-02-21T00:04:08;12.75;;;4.18;;
84937;SDS011;75210;52.210;20.902;2024-02-21T00:05:08;15.20;;;4.70;;
84937;SDS011;75210;52.210;20.902;2024-02-21T00:06:09;10.90;;;5.10;;
84937;SDS011;75210;52.210;20.902;2024-02-21T00:07:09;15.40;;;4.85;;
84937;SDS011;75210;52.210;20.902;2024-02-21T00:08:10;11.48;;;4.40;;
84937;SDS011;75210;52.210;20.902;2024-02-21T00:09:10;13.90;;;5.00;;
84937;SDS011;75210;52.210;20.902;2024-02-21T00:10:10;16.45;;;4.78;;
84937;SDS011;75210;52.210;20.902;2024-02-21T00:11:11;16.77;;;5.93;;
84937;SDS011;75210;52.210;20.902;2024-02-21T00:12:11;17.42;;;4.78;;
84937;SDS011;75210;52.210;20.902;2024-02-21T00:13:12;13.90;;;4.95;;
84937;SDS011;75210;52.210;20.902;2024-02-21T00:14:12;11.60;;;4.60;;
84937;SDS011;75210;52.210;20.902;2024-02-21T00:15:15;14.23;;;4.90;;
84937;SDS011;75210;52.210;20.902;2024-02-21T00:16:16;14.82;;;6.20;;
84937;SDS011;75210;52.210;20.902;2024-02-21T00:17:16;15.20;;;6.50;;
84937;SDS011;75210;52.210;20.902;2024-02-21T00:18:17;20.63;;;6.85;;
84937;SDS011;75210;52.210;20.902;2024-02-21T00:19:44;22.40;;;6.82;;
84937;SDS011;75210;52.210;20.902;2024-02-21T00:20:44;18.25;;;5.95;;
84937;SDS011;75210;52.210;20.902;2024-02-21T00:21:44;14.52;;;5.55;;
84937;SDS011;75210;52.210;20.902;2024-02-21T00:22:45;14.40;;;5.45;;
84937;SDS011;75210;52.210;20.902;2024-02-21T00:23:45;18.63;;;5.32;;
84937;SDS011;75210;52.210;20.902;2024-02-21T00:24:46;21.67;;;5.10;;
84937;SDS011;75210;52.210;20.902;2024-02-21T00:25:46;14.32;;;5.22;;
84937;SDS011;75210;52.210;20.902;2024-02-21T00:26:47;15.20;;;4.85;;
84937;SDS011;75210;52.210;20.902;2024-02-21T00:27:47;16.45;;;5.20;;
84937;SDS011;75210;52.210;20.902;2024-02-21T00:28:48;15.63;;;4.47;;
84937;SDS011;75210;52.210;20.902;2024-02-21T00:29:48;13.95;;;5.13;;
84937;SDS011;75210;52.210;20.902;2024-02-21T00:30:51;18.20;;;5.60;;
84937;SDS011;75210;52.210;20.902;2024-02-21T00:31:51;16.60;;;5.40;;
84937;SDS011;75210;52.210;20.902;2024-02-21T00:32:52;9.70;;;4.53;;
84937;SDS011;75210;52.210;20.902;2024-02-21T00:33:52;15.02;;;6.70;;
84937;SDS011;75210;52.210;20.902;2024-02-21T00:34:53;26.75;;;10.38;;
84937;SDS011;75210;52.210;20.902;2024-02-21T00:35:53;16.73;;;7.13;;
84937;SDS011;75210;52.210;20.902;2024-02-21T00:36:54;17.73;;;5.72;;
84937;SDS011;75210;52.210;20.902;2024-02-21T00:37:54;18.27;;;5.82;;
84937;SDS011;75210;52.210;20.902;2024-02-21T00:38:54;18.17;;;6.32;;
84937;SDS011;75210;52.210;20.902;2024-02-21T00:39:55;21.80;;;7.93;;
84937;SDS011;75210;52.210;20.902;2024-02-21T00:40:55;13.98;;;6.10;;
84937;SDS011;75210;52.210;20.902;2024-02-21T00:41:56;15.40;;;5.95;;
84937;SDS011;75210;52.210;20.902;2024-02-21T00:42:56;13.30;;;5.60;;
84937;SDS011;75210;52.210;20.902;2024-02-21T00:43:57;14.93;;;5.40;;
84937;SDS011;75210;52.210;20.902;2024-02-21T00:44:57;17.35;;;5.82;;
84937;SDS011;75210;52.210;20.902;2024-02-21T00:45:59;17.77;;;5.55;;
84937;SDS011;75210;52.210;20.902;2024-02-21T00:47:00;14.10;;;5.63;;
84937;SDS011;75210;52.210;20.902;2024-02-21T00:48:00;15.20;;;5.28;;
84937;SDS011;75210;52.210;20.902;2024-02-21T00:49:01;12.90;;;5.32;;
84937;SDS011;75210;52.210;20.902;2024-02-21T00:50:01;11.93;;;4.93;;
84937;SDS011;75210;52.210;20.902;2024-02-21T00:51:02;18.95;;;5.90;;
84937;SDS011;75210;52.210;20.902;2024-02-21T00:52:02;18.17;;;5.45;;
84937;SDS011;75210;52.210;20.902;2024-02-21T00:53:03;24.23;;;6.10;;
84937;SDS011;75210;52.210;20.902;2024-02-21T00:54:03;15.38;;;5.90;;
84937;SDS011;75210;52.210;20.902;2024-02-21T00:55:04;14.57;;;5.10;;
84937;SDS011;75210;52.210;20.902;2024-02-21T00:56:05;16.35;;;6.00;;
84937;SDS011;75210;52.210;20.902;2024-02-21T00:57:06;16.73;;;6.53;;
84937;SDS011;75210;52.210;20.902;2024-02-21T00:58:06;18.13;;;6.43;;
84937;SDS011;75210;52.210;20.902;2024-02-21T00:59:07;16.35;;;6.13;;
84937;SDS011;75210;52.210;20.902;2024-02-21T01:00:08;14.52;;;5.35;;
84937;SDS011;75210;52.210;20.902;2024-02-21T01:01:10;11.88;;;4.88;;
84937;SDS011;75210;52.210;20.902;2024-02-21T01:02:11;15.15;;;4.80;;
84937;SDS011;75210;52.210;20.902;2024-02-21T01:03:11;11.73;;;4.82;;
84937;SDS011;75210;52.210;20.902;2024-02-21T01:04:12;18.52;;;6.53;;
84937;SDS011;75210;52.210;20.902;2024-02-21T01:05:12;15.18;;;4.80;;
84937;SDS011;75210;52.210;20.902;2024-02-21T01:06:13;12.60;;;4.82;;
84937;SDS011;75210;52.210;20.902;2024-02-21T01:07:13;15.60;;;5.60;;
84937;SDS011;75210;52.210;20.902;2024-02-21T01:08:14;11.80;;;5.15;;
84937;SDS011;75210;52.210;20.902;2024-02-21T01:09:14;13.02;;;4.82;;
84937;SDS011;75210;52.210;20.902;2024-02-21T01:10:14;16.15;;;6.72;;
84937;SDS011;75210;52.210;20.902;2024-02-21T01:11:15;17.70;;;4.70;;
84937;SDS011;75210;52.210;20.902;2024-02-21T01:12:16;14.88;;;5.35;;
84937;SDS011;75210;52.210;20.902;2024-02-21T01:13:16;15.65;;;5.93;;
84937;SDS011;75210;52.210;20.902;2024-02-21T01:14:17;11.27;;;4.88;;
84937;SDS011;75210;52.210;20.902;2024-02-21T01:15:17;16.77;;;5.13;;
84937;SDS011;75210;52.210;20.902;2024-02-21T01:16:19;17.83;;;6.38;;
84937;SDS011;75210;52.210;20.902;2024-02-21T01:17:20;19.30;;;6.13;;
84937;SDS011;75210;52.210;20.902;2024-02-21T01:18:20;13.48;;;5.25;;
84937;SDS011;75210;52.210;20.902;2024-02-21T01:19:20;16.15;;;5.65;;
84937;SDS011;75210;52.210;20.902;2024-02-21T01:20:21;23.30;;;6.13;;
84937;SDS011;75210;52.210;20.902;2024-02-21T01:21:21;16.10;;;5.43;;
84937;SDS011;75210;52.210;20.902;2024-02-21T01:22:22;15.38;;;5.95;;
84937;SDS011;75210;52.210;20.902;2024-02-21T01:23:22;16.15;;;5.78;;
84937;SDS011;75210;52.210;20.902;2024-02-21T01:24:23;15.20;;;6.03;;
84937;SDS011;75210;52.210;20.902;2024-02-21T01:25:23;18.65;;;5.57;;
84937;SDS011;75210;52.210;20.902;2024-02-21T01:26:24;16.40;;;5.95;;
84937;SDS011;75210;52.210;20.902;2024-02-21T01:27:24;14.07;;;4.95;;
84937;SDS011;75210;52.210;20.902;2024-02-21T01:28:25;18.45;;;5.75;;
84937;SDS011;75210;52.210;20.902;2024-02-21T01:29:25;11.63;;;4.75;;
84937;SDS011;75210;52.210;20.902;2024-02-21T01:30:26;13.88;;;5.03;;
84937;SDS011;75210;52.210;20.902;2024-02-21T01:31:28;16.50;;;5.95;;
84937;SDS011;75210;52.210;20.902;2024-02-21T01:33:28;15.93;;;5.68;;
84937;SDS011;75210;52.210;20.902;2024-02-21T01:34:29;20.15;;;6.60;;
84937;SDS011;75210;52.210;20.902;2024-02-21T01:35:29;17.38;;;5.60;;
84937;SDS011;75210;52.210;20.902;2024-02-21T01:36:30;19.52;;;5.63;;
84937;SDS011;75210;52.210;20.902;2024-02-21T01:37:30;18.48;;;6.07;;
84937;SDS011;75210;52.210;20.902;2024-02-21T01:38:31;12.43;;;5.00;;
84937;SDS011;75210;52.210;20.902;2024-02-21T01:39:31;16.17;;;5.57;;
84937;SDS011;75210;52.210;20.902;2024-02-21T01:40:31;16.83;;;5.82;;
84937;SDS011;75210;52.210;20.902;2024-02-21T01:41:32;16.77;;;6.22;;
84937;SDS011;75210;52.210;20.902;2024-02-21T01:42:32;13.93;;;5.07;;
84937;SDS011;75210;52.210;20.902;2024-02-21T01:43:33;15.75;;;5.97;;
84937;SDS011;75210;52.210;20.902;2024-02-21T01:44:33;17.77;;;5.93;;
84937;SDS011;75210;52.210;20.902;2024-02-21T01:45:34;13.93;;;5.90;;
84937;SDS011;75210;52.210;20.902;2024-02-21T01:46:35;25.10;;;5.82;;
84937;SDS011;75210;52.210;20.902;2024-02-21T01:47:37;17.05;;;5.65;;
84937;SDS011;75210;52.210;20.902;2024-02-21T01:48:37;17.23;;;5.05;;
84937;SDS011;75210;52.210;20.902;2024-02-21T01:49:38;17.73;;;7.10;;
84937;SDS011;75210;52.210;20.902;2024-02-21T01:50:38;19.98;;;6.75;;
84937;SDS011;75210;52.210;20.902;2024-02-21T01:51:39;13.48;;;5.70;;
84937;SDS011;75210;52.210;20.902;2024-02-21T01:52:40;16.45;;;6.40;;
84937;SDS011;75210;52.210;20.902;2024-02-21T01:53:42;19.08;;;6.47;;
84937;SDS011;75210;52.210;20.902;2024-02-21T01:54:43;19.23;;;5.65;;
84937;SDS011;75210;52.210;20.902;2024-02-21T01:55:44;14.30;;;5.65;;
84937;SDS011;75210;52.210;20.902;2024-02-21T01:56:45;17.20;;;5.65;;
84937;SDS011;75210;52.210;20.902;2024-02-21T01:57:47;14.20;;;5.25;;
84937;SDS011;75210;52.210;20.902;2024-02-21T01:58:47;16.10;;;5.38;;
84937;SDS011;75210;52.210;20.902;2024-02-21T01:59:48;16.05;;;5.80;;
84937;SDS011;75210;52.210;20.902;2024-02-21T02:00:49;20.33;;;6.40;;
84937;SDS011;75210;52.210;20.902;2024-02-21T02:01:53;16.67;;;6.80;;
84937;SDS011;75210;52.210;20.902;2024-02-21T02:02:55;18.52;;;6.05;;
84937;SDS011;75210;52.210;20.902;2024-02-21T02:03:56;18.02;;;6.95;;
84937;SDS011;75210;52.210;20.902;2024-02-21T02:04:59;15.02;;;5.25;;
84937;SDS011;75210;52.210;20.902;2024-02-21T02:06:00;15.23;;;5.53;;
84937;SDS011;75210;52.210;20.902;2024-02-21T02:07:02;15.68;;;5.55;;
84937;SDS011;75210;52.210;20.902;2024-02-21T02:08:06;20.25;;;6.00;;
84937;SDS011;75210;52.210;20.902;2024-02-21T02:09:07;14.07;;;5.20;;
84937;SDS011;75210;52.210;20.902;2024-02-21T02:10:07;16.02;;;5.20;;
84937;SDS011;75210;52.210;20.902;2024-02-21T02:11:08;12.20;;;5.28;;
84937;SDS011;75210;52.210;20.902;2024-02-21T02:12:09;13.45;;;5.57;;
84937;SDS011;75210;52.210;20.902;2024-02-21T02:13:10;15.15;;;5.10;;
84937;SDS011;75210;52.210;20.902;2024-02-21T02:14:10;15.35;;;5.80;;
84937;SDS011;75210;52.210;20.902;2024-02-21T02:15:11;12.75;;;5.60;;
84937;SDS011;75210;52.210;20.902;2024-02-21T02:16:11;17.08;;;6.50;;
84937;SDS011;75210;52.210;20.902;2024-02-21T02:17:14;17.08;;;6.03;;
84937;SDS011;75210;52.210;20.902;2024-02-21T02:18:15;10.57;;;5.10;;
84937;SDS011;75210;52.210;20.902;2024-02-21T02:19:16;15.07;;;5.45;;
84937;SDS011;75210;52.210;20.902;2024-02-21T02:20:16;15.50;;;6.10;;
84937;SDS011;75210;52.210;20.902;2024-02-21T02:21:21;15.10;;;5.68;;
84937;SDS011;75210;52.210;20.902;2024-02-21T02:22:28;12.40;;;5.57;;
84937;SDS011;75210;52.210;20.902;2024-02-21T02:23:30;18.73;;;5.93;;
84937;SDS011;75210;52.210;20.902;2024-02-21T02:24:31;18.50;;;6.85;;
84937;SDS011;75210;52.210;20.902;2024-02-21T02:25:32;12.25;;;5.80;;
84937;SDS011;75210;52.210;20.902;2024-02-21T02:26:32;13.32;;;5.97;;
84937;SDS011;75210;52.210;20.902;2024-02-21T02:27:32;18.67;;;6.50;;
84937;SDS011;75210;52.210;20.902;2024-02-21T02:29:41;15.18;;;5.65;;
84937;SDS011;75210;52.210;20.902;2024-02-21T02:30:41;14.75;;;5.85;;
84937;SDS011;75210;52.210;20.902;2024-02-21T02:31:42;14.43;;;5.97;;
84937;SDS011;75210;52.210;20.902;2024-02-21T02:32:44;15.43;;;5.50;;
84937;SDS011;75210;52.210;20.902;2024-02-21T02:33:44;16.23;;;6.03;;
84937;SDS011;75210;52.210;20.902;2024-02-21T02:34:45;16.00;;;6.47;;
84937;SDS011;75210;52.210;20.902;2024-02-21T02:35:45;12.77;;;5.60;;
84937;SDS011;75210;52.210;20.902;2024-02-21T02:36:46;15.98;;;5.80;;
84937;SDS011;75210;52.210;20.902;2024-02-21T02:37:50;19.80;;;6.15;;
84937;SDS011;75210;52.210;20.902;2024-02-21T02:38:53;23.73;;;7.13;;
84937;SDS011;75210;52.210;20.902;2024-02-21T02:39:54;17.48;;;6.82;;
84937;SDS011;75210;52.210;20.902;2024-02-21T02:40:54;15.00;;;6.82;;
84937;SDS011;75210;52.210;20.902;2024-02-21T02:41:55;17.05;;;6.95;;
84937;SDS011;75210;52.210;20.902;2024-02-21T02:42:55;25.55;;;7.25;;
84937;SDS011;75210;52.210;20.902;2024-02-21T02:43:56;22.45;;;8.95;;
84937;SDS011;75210;52.210;20.902;2024-02-21T02:44:56;19.35;;;7.07;;
84937;SDS011;75210;52.210;20.902;2024-02-21T02:45:57;22.42;;;6.80;;
84937;SDS011;75210;52.210;20.902;2024-02-21T02:46:57;20.20;;;7.60;;
84937;SDS011;75210;52.210;20.902;2024-02-21T02:47:58;19.10;;;6.50;;
84937;SDS011;75210;52.210;20.902;2024-02-21T02:48:58;21.20;;;7.00;;
84937;SDS011;75210;52.210;20.902;2024-02-21T02:49:59;14.68;;;6.43;;
84937;SDS011;75210;52.210;20.902;2024-02-21T02:50:59;14.70;;;6.25;;
84937;SDS011;75210;52.210;20.902;2024-02-21T02:52:00;13.77;;;5.97;;
84937;SDS011;75210;52.210;20.902;2024-02-21T02:53:00;16.13;;;5.88;;
84937;SDS011;75210;52.210;20.902;2024-02-21T02:54:02;22.80;;;7.13;;
84937;SDS011;75210;52.210;20.902;2024-02-21T02:55:03;19.55;;;7.13;;
84937;SDS011;75210;52.210;20.902;2024-02-21T02:56:04;19.25;;;6.72;;
84937;SDS011;75210;52.210;20.902;2024-02-21T02:57:05;17.60;;;6.30;;
84937;SDS011;75210;52.210;20.902;2024-02-21T02:58:05;16.23;;;6.10;;
84937;SDS011;75210;52.210;20.902;2024-02-21T02:59:06;18.48;;;7.57;;
84937;SDS011;75210;52.210;20.902;2024-02-21T03:00:07;18.58;;;7.13;;
84937;SDS011;75210;52.210;20.902;2024-02-21T03:01:08;19.48;;;7.95;;
84937;SDS011;75210;52.210;20.902;2024-02-21T03:02:08;19.98;;;7.13;;
84937;SDS011;75210;52.210;20.902;2024-02-21T03:03:09;20.10;;;7.07;;
84937;SDS011;75210;52.210;20.902;2024-02-21T03:04:09;15.38;;;7.35;;
84937;SDS011;75210;52.210;20.902;2024-02-21T03:05:14;17.45;;;7.20;;
84937;SDS011;75210;52.210;20.902;2024-02-21T03:06:15;19.40;;;8.00;;
84937;SDS011;75210;52.210;20.902;2024-02-21T03:07:16;14.77;;;7.10;;
84937;SDS011;75210;52.210;20.902;2024-02-21T03:08:16;17.08;;;7.25;;
84937;SDS011;75210;52.210;20.902;2024-02-21T03:09:18;20.33;;;7.30;;
84937;SDS011;75210;52.210;20.902;2024-02-21T03:10:19;19.77;;;6.95;;
84937;SDS011;75210;52.210;20.902;2024-02-21T03:11:19;17.08;;;6.97;;
84937;SDS011;75210;52.210;20.902;2024-02-21T03:12:19;12.48;;;5.85;;
84937;SDS011;75210;52.210;20.902;2024-02-21T03:13:20;23.33;;;7.88;;
84937;SDS011;75210;52.210;20.902;2024-02-21T03:14:20;19.77;;;6.97;;
84937;SDS011;75210;52.210;20.902;2024-02-21T03:15:21;19.20;;;7.22;;
84937;SDS011;75210;52.210;20.902;2024-02-21T03:16:21;19.48;;;7.65;;
84937;SDS011;75210;52.210;20.902;2024-02-21T03:17:22;18.75;;;7.32;;
84937;SDS011;75210;52.210;20.902;2024-02-21T03:18:22;17.58;;;7.03;;
84937;SDS011;75210;52.210;20.902;2024-02-21T03:19:23;17.55;;;7.03;;
84937;SDS011;75210;52.210;20.902;2024-02-21T03:20:23;16.00;;;6.45;;
84937;SDS011;75210;52.210;20.902;2024-02-21T03:21:23;20.55;;;8.05;;
84937;SDS011;75210;52.210;20.902;2024-02-21T03:22:24;16.90;;;6.60;;
84937;SDS011;75210;52.210;20.902;2024-02-21T03:23:24;19.20;;;8.05;;
84937;SDS011;75210;52.210;20.902;2024-02-21T03:24:26;15.90;;;6.70;;
84937;SDS011;75210;52.210;20.902;2024-02-21T03:26:27;22.05;;;7.10;;
84937;SDS011;75210;52.210;20.902;2024-02-21T03:27:27;13.45;;;6.35;;
84937;SDS011;75210;52.210;20.902;2024-02-21T03:28:28;21.50;;;7.85;;
84937;SDS011;75210;52.210;20.902;2024-02-21T03:29:28;20.67;;;8.00;;
84937;SDS011;75210;52.210;20.902;2024-02-21T03:30:29;17.92;;;7.32;;
84937;SDS011;75210;52.210;20.902;2024-02-21T03:31:29;19.58;;;6.95;;
84937;SDS011;75210;52.210;20.902;2024-02-21T03:32:30;17.10;;;6.53;;
84937;SDS011;75210;52.210;20.902;2024-02-21T03:33:30;23.98;;;8.63;;
84937;SDS011;75210;52.210;20.902;2024-02-21T03:34:31;21.48;;;7.63;;
84937;SDS011;75210;52.210;20.902;2024-02-21T03:35:31;15.77;;;7.50;;
84937;SDS011;75210;52.210;20.902;2024-02-21T03:36:31;21.23;;;8.48;;
84937;SDS011;75210;52.210;20.902;2024-02-21T03:37:32;13.95;;;6.93;;
84937;SDS011;75210;52.210;20.902;2024-02-21T03:38:32;19.25;;;7.03;;
84937;SDS011;75210;52.210;20.902;2024-02-21T03:39:34;18.30;;;7.53;;
84937;SDS011;75210;52.210;20.902;2024-02-21T03:41:35;17.45;;;6.35;;
84937;SDS011;75210;52.210;20.902;2024-02-21T03:42:36;19.58;;;7.60;;
84937;SDS011;75210;52.210;20.902;2024-02-21T03:43:37;17.35;;;7.70;;
84937;SDS011;75210;52.210;20.902;2024-02-21T03:44:37;18.75;;;6.45;;
84937;SDS011;75210;52.210;20.902;2024-02-21T03:45:38;22.10;;;8.85;;
84937;SDS011;75210;52.210;20.902;2024-02-21T03:46:38;20.58;;;7.82;;
84937;SDS011;75210;52.210;20.902;2024-02-21T03:47:39;23.42;;;9.13;;
84937;SDS011;75210;52.210;20.902;2024-02-21T03:48:39;16.65;;;7.70;;
84937;SDS011;75210;52.210;20.902;2024-02-21T03:49:39;16.10;;;7.32;;
84937;SDS011;75210;52.210;20.902;2024-02-21T03:50:40;16.73;;;8.25;;
84937;SDS011;75210;52.210;20.902;2024-02-21T03:51:40;25.10;;;9.35;;
84937;SDS011;75210;52.210;20.902;2024-02-21T03:52:41;18.25;;;8.13;;
84937;SDS011;75210;52.210;20.902;2024-02-21T03:53:41;20.23;;;8.85;;
84937;SDS011;75210;52.210;20.902;2024-02-21T03:54:43;22.15;;;8.45;;
84937;SDS011;75210;52.210;20.902;2024-02-21T03:55:43;16.38;;;7.07;;
84937;SDS011;75210;52.210;20.902;2024-02-21T03:56:44;22.65;;;8.75;;
84937;SDS011;75210;52.210;20.902;2024-02-21T03:57:44;17.48;;;7.93;;
84937;SDS011;75210;52.210;20.902;2024-02-21T03:58:45;20.65;;;8.63;;
84937;SDS011;75210;52.210;20.902;2024-02-21T03:59:46;19.45;;;8.20;;
84937;SDS011;75210;52.210;20.902;2024-02-21T04:00:46;16.38;;;7.10;;
84937;SDS011;75210;52.210;20.902;2024-02-21T04:01:47;21.17;;;8.80;;
84937;SDS011;75210;52.210;20.902;2024-02-21T04:02:51;17.15;;;7.53;;
84937;SDS011;75210;52.210;20.902;2024-02-21T04:03:51;19.50;;;7.85;;
84937;SDS011;75210;52.210;20.902;2024-02-21T04:04:52;19.63;;;8.55;;
84937;SDS011;75210;52.210;20.902;2024-02-21T04:05:52;19.17;;;9.23;;
84937;SDS011;75210;52.210;20.902;2024-02-21T04:06:53;22.67;;;8.23;;
84937;SDS011;75210;52.210;20.902;2024-02-21T04:07:53;19.75;;;8.50;;
84937;SDS011;75210;52.210;20.902;2024-02-21T04:08:54;19.05;;;8.23;;
84937;SDS011;75210;52.210;20.902;2024-02-21T04:09:56;19.10;;;8.27;;
84937;SDS011;75210;52.210;20.902;2024-02-21T04:10:56;18.48;;;8.60;;
84937;SDS011;75210;52.210;20.902;2024-02-21T04:11:56;20.55;;;8.20;;
84937;SDS011;75210;52.210;20.902;2024-02-21T04:12:57;23.38;;;8.18;;
84937;SDS011;75210;52.210;20.902;2024-02-21T04:13:57;18.25;;;9.13;;
84937;SDS011;75210;52.210;20.902;2024-02-21T04:14:58;18.85;;;7.70;;
84937;SDS011;75210;52.210;20.902;2024-02-21T04:15:58;19.95;;;8.10;;
84937;SDS011;75210;52.210;20.902;2024-02-21T04:16:59;23.33;;;7.97;;
84937;SDS011;75210;52.210;20.902;2024-02-21T04:17:59;20.80;;;8.45;;
84937;SDS011;75210;52.210;20.902;2024-02-21T04:18:59;24.88;;;8.68;;
84937;SDS011;75210;52.210;20.902;2024-02-21T04:20:01;18.90;;;7.95;;
84937;SDS011;75210;52.210;20.902;2024-02-21T04:21:03;23.30;;;8.05;;
84937;SDS011;75210;52.210;20.902;2024-02-21T04:22:04;22.35;;;7.40;;
84937;SDS011;75210;52.210;20.902;2024-02-21T04:23:04;19.08;;;8.00;;
84937;SDS011;75210;52.210;20.902;2024-02-21T04:24:05;14.32;;;7.32;;
84937;SDS011;75210;52.210;20.902;2024-02-21T04:25:08;21.90;;;8.27;;
84937;SDS011;75210;52.210;20.902;2024-02-21T04:26:08;21.63;;;8.30;;
84937;SDS011;75210;52.210;20.902;2024-02-21T04:27:09;14.73;;;7.15;;
84937;SDS011;75210;52.210;20.902;2024-02-21T04:28:09;15.45;;;7.30;;
84937;SDS011;75210;52.210;20.902;2024-02-21T04:29:10;21.17;;;8.15;;
84937;SDS011;75210;52.210;20.902;2024-02-21T04:30:11;17.55;;;7.72;;
84937;SDS011;75210;52.210;20.902;2024-02-21T04:31:12;21.30;;;9.00;;
84937;SDS011;75210;52.210;20.902;2024-02-21T04:32:12;16.58;;;7.38;;
84937;SDS011;75210;52.210;20.902;2024-02-21T04:33:13;15.13;;;7.20;;
84937;SDS011;75210;52.210;20.902;2024-02-21T04:34:13;19.70;;;9.55;;
84937;SDS011;75210;52.210;20.902;2024-02-21T04:35:14;20.05;;;8.30;;
84937;SDS011;75210;52.210;20.902;2024-02-21T04:36:14;20.73;;;8.60;;
84937;SDS011;75210;52.210;20.902;2024-02-21T04:37:15;23.20;;;8.38;;
84937;SDS011;75210;52.210;20.902;2024-02-21T04:38:15;26.13;;;9.02;;
84937;SDS011;75210;52.210;20.902;2024-02-21T04:39:15;15.98;;;7.30;;
84937;SDS011;75210;52.210;20.902;2024-02-21T04:40:17;19.38;;;7.65;;
84937;SDS011;75210;52.210;20.902;2024-02-21T04:42:18;21.10;;;8.57;;
84937;SDS011;75210;52.210;20.902;2024-02-21T04:43:19;17.92;;;8.10;;
84937;SDS011;75210;52.210;20.902;2024-02-21T04:44:19;16.45;;;8.10;;
84937;SDS011;75210;52.210;20.902;2024-02-21T04:45:19;21.52;;;8.50;;
84937;SDS011;75210;52.210;20.902;2024-02-21T04:46:20;24.17;;;8.68;;
84937;SDS011;75210;52.210;20.902;2024-02-21T04:47:20;20.27;;;8.48;;
84937;SDS011;75210;52.210;20.902;2024-02-21T04:48:21;20.02;;;8.63;;
84937;SDS011;75210;52.210;20.902;2024-02-21T04:49:22;20.65;;;9.45;;
84937;SDS011;75210;52.210;20.902;2024-02-21T04:50:22;17.63;;;8.50;;
84937;SDS011;75210;52.210;20.902;2024-02-21T04:51:23;23.52;;;8.38;;
84937;SDS011;75210;52.210;20.902;2024-02-21T04:52:23;20.52;;;8.65;;
84937;SDS011;75210;52.210;20.902;2024-02-21T04:53:24;22.55;;;9.45;;
84937;SDS011;75210;52.210;20.902;2024-02-21T04:54:24;17.58;;;7.85;;
84937;SDS011;75210;52.210;20.902;2024-02-21T04:55:26;20.25;;;8.35;;
84937;SDS011;75210;52.210;20.902;2024-02-21T04:56:26;19.30;;;8.00;;
84937;SDS011;75210;52.210;20.902;2024-02-21T04:57:27;22.17;;;8.57;;
84937;SDS011;75210;52.210;20.902;2024-02-21T04:58:27;15.88;;;8.60;;
84937;SDS011;75210;52.210;20.902;2024-02-21T04:59:28;24.63;;;9.18;;
84937;SDS011;75210;52.210;20.902;2024-02-21T05:00:28;21.40;;;9.18;;
84937;SDS011;75210;52.210;20.902;2024-02-21T05:01:29;14.68;;;8.35;;
84937;SDS011;75210;52.210;20.902;2024-02-21T05:02:29;23.50;;;10.15;;
84937;SDS011;75210;52.210;20.902;2024-02-21T05:03:29;20.90;;;9.98;;
84937;SDS011;75210;52.210;20.902;2024-02-21T05:04:30;27.10;;;10.00;;
84937;SDS011;75210;52.210;20.902;2024-02-21T05:05:30;22.40;;;8.88;;
84937;SDS011;75210;52.210;20.902;2024-02-21T05:06:31;23.85;;;9.40;;
84937;SDS011;75210;52.210;20.902;2024-02-21T05:07:31;25.40;;;9.35;;
84937;SDS011;75210;52.210;20.902;2024-02-21T05:08:32;28.52;;;10.18;;
84937;SDS011;75210;52.210;20.902;2024-02-21T05:09:32;22.42;;;10.38;;
84937;SDS011;75210;52.210;20.902;2024-02-21T05:10:34;22.45;;;10.43;;
84937;SDS011;75210;52.210;20.902;2024-02-21T05:12:35;23.25;;;9.18;;
84937;SDS011;75210;52.210;20.902;2024-02-21T05:13:35;23.75;;;10.57;;
84937;SDS011;75210;52.210;20.902;2024-02-21T05:14:36;24.88;;;10.63;;
84937;SDS011;75210;52.210;20.902;2024-02-21T05:15:36;18.00;;;8.98;;
84937;SDS011;75210;52.210;20.902;2024-02-21T05:16:38;26.65;;;10.02;;
84937;SDS011;75210;52.210;20.902;2024-02-21T05:17:39;29.35;;;11.07;;
84937;SDS011;75210;52.210;20.902;2024-02-21T05:18:39;25.40;;;10.98;;
84937;SDS011;75210;52.210;20.902;2024-02-21T05:19:40;26.88;;;10.40;;
84937;SDS011;75210;52.210;20.902;2024-02-21T05:20:41;26.58;;;11.02;;
84937;SDS011;75210;52.210;20.902;2024-02-21T05:21:41;20.15;;;9.68;;
84937;SDS011;75210;52.210;20.902;2024-02-21T05:22:42;34.10;;;12.30;;
84937;SDS011;75210;52.210;20.902;2024-02-21T05:23:42;29.30;;;12.52;;
84937;SDS011;75210;52.210;20.902;2024-02-21T05:24:43;32.42;;;11.70;;
84937;SDS011;75210;52.210;20.902;2024-02-21T05:25:44;29.33;;;12.75;;
84937;SDS011;75210;52.210;20.902;2024-02-21T05:26:45;26.70;;;12.27;;
84937;SDS011;75210;52.210;20.902;2024-02-21T05:27:45;27.70;;;12.65;;
84937;SDS011;75210;52.210;20.902;2024-02-21T05:28:46;25.25;;;11.93;;
84937;SDS011;75210;52.210;20.902;2024-02-21T05:29:46;27.92;;;11.60;;
84937;SDS011;75210;52.210;20.902;2024-02-21T05:30:47;33.92;;;13.55;;
84937;SDS011;75210;52.210;20.902;2024-02-21T05:31:56;22.35;;;11.45;;
84937;SDS011;75210;52.210;20.902;2024-02-21T05:32:57;33.05;;;13.23;;
84937;SDS011;75210;52.210;20.902;2024-02-21T05:33:57;25.63;;;11.85;;
84937;SDS011;75210;52.210;20.902;2024-02-21T05:34:58;29.83;;;12.52;;
84937;SDS011;75210;52.210;20.902;2024-02-21T05:35:58;27.15;;;12.30;;
84937;SDS011;75210;52.210;20.902;2024-02-21T05:36:59;24.55;;;10.93;;
84937;SDS011;75210;52.210;20.902;2024-02-21T05:37:59;27.05;;;12.73;;
84937;SDS011;75210;52.210;20.902;2024-02-21T05:39:00;34.25;;;12.45;;
84937;SDS011;75210;52.210;20.902;2024-02-21T05:40:00;29.20;;;13.43;;
84937;SDS011;75210;52.210;20.902;2024-02-21T05:41:02;29.60;;;12.77;;
84937;SDS011;75210;52.210;20.902;2024-02-21T05:43:03;30.70;;;11.93;;
84937;SDS011;75210;52.210;20.902;2024-02-21T05:44:03;26.92;;;11.20;;
84937;SDS011;75210;52.210;20.902;2024-02-21T05:45:04;30.83;;;11.82;;
84937;SDS011;75210;52.210;20.902;2024-02-21T05:46:05;27.45;;;12.00;;
84937;SDS011;75210;52.210;20.902;2024-02-21T05:47:06;28.27;;;11.35;;
84937;SDS011;75210;52.210;20.902;2024-02-21T05:48:06;30.58;;;12.07;;
84937;SDS011;75210;52.210;20.902;2024-02-21T05:49:07;27.75;;;10.80;;
84937;SDS011;75210;52.210;20.902;2024-02-21T05:50:08;26.25;;;11.15;;
84937;SDS011;75210;52.210;20.902;2024-02-21T05:51:09;23.85;;;10.73;;
84937;SDS011;75210;52.210;20.902;2024-02-21T05:52:09;25.55;;;10.52;;
84937;SDS011;75210;52.210;20.902;2024-02-21T05:53:09;26.65;;;11.02;;
84937;SDS011;75210;52.210;20.902;2024-02-21T05:54:10;28.20;;;12.55;;
84937;SDS011;75210;52.210;20.902;2024-02-21T05:55:10;25.30;;;10.35;;
84937;SDS011;75210;52.210;20.902;2024-02-21T05:56:12;32.72;;;11.85;;
84937;SDS011;75210;52.210;20.902;2024-02-21T05:57:13;22.58;;;10.40;;
84937;SDS011;75210;52.210;20.902;2024-02-21T05:58:14;27.92;;;11.27;;
84937;SDS011;75210;52.210;20.902;2024-02-21T05:59:14;29.45;;;12.32;;
84937;SDS011;75210;52.210;20.902;2024-02-21T06:00:15;25.67;;;12.00;;
84937;SDS011;75210;52.210;20.902;2024-02-21T06:01:16;22.40;;;11.05;;